Time;durP1;ratioP1;P1;durP2;ratioP2;P2;SDS_P1;SDS_P2;PMS_P1;PMS_P2;Temp;Humidity;BMP_temperature;BMP_pressure;BME280_temperature;BME280_humidity;BME280_pressure;Samples;Min_cycle;Max_cycle;Signal;HPM_P1;HPM_P2
2022/07/07 00:01:44;;;;;;;1.83;1.73;;;22.40;48.60;;;;;;5055543;28;20226;-69
2022/07/07 00:04:11;;;;;;;1.67;1.58;;;22.40;47.80;;;;;;5037661;28;20733;-68
2022/07/07 00:06:38;;;;;;;2.28;1.50;;;22.40;48.10;;;;;;5056704;28;20196;-69
2022/07/07 00:09:07;;;;;;;3.30;1.50;;;22.40;47.90;;;;;;5037945;28;20222;-69
2022/07/07 00:11:33;;;;;;;1.70;1.55;;;22.40;48.10;;;;;;5037669;28;20215;-69
2022/07/07 00:14:01;;;;;;;2.03;1.50;;;22.40;48.20;;;;;;5055387;28;20191;-69
2022/07/07 00:16:28;;;;;;;2.03;1.30;;;22.40;48.20;;;;;;5055517;28;20191;-69
2022/07/07 00:18:55;;;;;;;1.73;1.40;;;22.40;49.00;;;;;;5037464;28;20260;-69
2022/07/07 00:21:22;;;;;;;2.33;1.50;;;22.40;48.40;;;;;;5037159;28;20694;-68
2022/07/07 00:23:50;;;;;;;1.70;1.60;;;22.40;48.20;;;;;;5037304;28;20572;-69
2022/07/07 00:26:18;;;;;;;2.08;1.60;;;22.40;48.20;;;;;;5037256;28;20297;-69
2022/07/07 00:28:45;;;;;;;2.17;1.75;;;22.30;48.10;;;;;;5053960;28;20199;-69
2022/07/07 00:31:13;;;;;;;1.75;1.58;;;22.30;48.10;;;;;;5037109;28;20231;-68
2022/07/07 00:33:40;;;;;;;2.75;1.67;;;22.30;48.10;;;;;;5036948;28;20223;-69
2022/07/07 00:36:07;;;;;;;2.83;1.60;;;22.40;48.20;;;;;;5037629;28;20558;-68
2022/07/07 00:38:35;;;;;;;1.98;1.77;;;22.30;48.40;;;;;;5054740;28;20199;-69
2022/07/07 00:41:02;;;;;;;1.67;1.58;;;22.30;48.40;;;;;;5054661;28;20203;-69
2022/07/07 00:43:35;;;;;;;1.88;1.70;;;22.30;48.40;;;;;;5036674;28;20196;-69
2022/07/07 00:46:02;;;;;;;1.52;1.42;;;22.30;48.10;;;;;;5036686;28;20249;-68
2022/07/07 00:48:29;;;;;;;1.70;1.60;;;22.30;48.20;;;;;;5036702;28;20218;-69
2022/07/07 00:50:56;;;;;;;2.15;1.75;;;22.30;48.20;;;;;;5054010;28;20223;-68
2022/07/07 00:53:23;;;;;;;2.50;1.80;;;22.30;48.20;;;;;;5053404;28;20196;-68
2022/07/07 00:55:50;;;;;;;2.22;1.70;;;22.30;48.20;;;;;;5036667;28;20686;-69
2022/07/07 00:58:17;;;;;;;2.45;1.60;;;22.30;48.20;;;;;;5054481;28;20568;-69
2022/07/07 01:00:46;;;;;;;3.20;1.95;;;22.30;48.20;;;;;;5036442;28;20223;-69
2022/07/07 01:03:13;;;;;;;2.25;1.80;;;22.30;48.40;;;;;;5036611;28;20199;-69
2022/07/07 01:05:40;;;;;;;1.67;1.58;;;22.30;48.40;;;;;;5054087;28;20655;-69
2022/07/07 01:08:08;;;;;;;2.17;1.80;;;22.20;48.30;;;;;;5036209;28;20199;-68
2022/07/07 01:10:36;;;;;;;2.28;1.70;;;22.20;48.30;;;;;;5036077;28;20586;-69
2022/07/07 01:13:03;;;;;;;1.83;1.73;;;22.20;48.20;;;;;;5036230;28;20648;-69
2022/07/07 01:15:30;;;;;;;1.80;1.65;;;22.20;48.30;;;;;;5036179;28;20198;-69
2022/07/07 01:17:58;;;;;;;1.92;1.77;;;22.20;48.50;;;;;;5036029;28;20199;-68
2022/07/07 01:20:25;;;;;;;2.13;1.60;;;22.20;48.60;;;;;;5054077;28;20222;-69
2022/07/07 01:22:54;;;;;;;2.05;1.90;;;22.20;48.70;;;;;;5054112;28;20187;-69
2022/07/07 01:25:21;;;;;;;1.70;1.60;;;22.20;48.50;;;;;;5035967;28;20187;-69
2022/07/07 01:27:49;;;;;;;3.50;1.70;;;22.20;48.50;;;;;;5053925;28;20274;-69
2022/07/07 01:30:16;;;;;;;2.40;1.80;;;22.20;48.50;;;;;;5036198;28;20223;-68
2022/07/07 01:32:43;;;;;;;2.13;1.90;;;22.20;48.50;;;;;;5053907;28;20219;-69
2022/07/07 01:35:10;;;;;;;2.10;2.00;;;22.20;48.40;;;;;;5053773;28;20184;-69
2022/07/07 01:37:37;;;;;;;2.13;1.92;;;22.20;48.50;;;;;;5035908;28;20195;-68
2022/07/07 01:40:07;;;;;;;1.80;1.70;;;22.20;48.60;;;;;;5036017;28;20729;-69
2022/07/07 01:42:34;;;;;;;2.10;1.90;;;22.20;48.60;;;;;;5039227;28;20195;-69
2022/07/07 01:45:01;;;;;;;1.98;1.88;;;22.20;48.60;;;;;;5038447;28;20204;-68
2022/07/07 01:47:28;;;;;;;2.70;2.00;;;22.20;48.60;;;;;;5036032;28;20667;-69
2022/07/07 01:49:55;;;;;;;2.53;1.90;;;22.20;48.60;;;;;;5036464;28;20279;-69
2022/07/07 01:52:22;;;;;;;1.90;1.77;;;22.20;48.50;;;;;;5036137;28;20222;-68
2022/07/07 01:54:49;;;;;;;2.22;2.00;;;22.20;48.50;;;;;;5036263;28;20195;-69
2022/07/07 01:57:18;;;;;;;2.30;2.00;;;22.10;48.50;;;;;;5056461;28;20207;-69
2022/07/07 01:59:45;;;;;;;2.80;2.10;;;22.10;48.60;;;;;;5036234;28;20287;-68
2022/07/07 02:02:13;;;;;;;2.20;2.00;;;22.10;48.60;;;;;;5035986;28;20306;-69
2022/07/07 02:04:49;;;;;;;2.45;2.00;;;22.10;48.70;;;;;;5053351;28;20708;-69
2022/07/07 02:07:20;;;;;;;1.90;1.80;;;22.20;48.80;;;;;;5053618;28;20203;-69
2022/07/07 02:09:48;;;;;;;2.00;1.90;;;22.10;48.70;;;;;;5035534;28;20690;-69
2022/07/07 02:12:14;;;;;;;2.30;1.80;;;22.10;49.30;;;;;;5037805;28;20215;-68
2022/07/07 02:14:43;;;;;;;2.25;2.00;;;22.10;48.80;;;;;;5039561;28;20196;-69
2022/07/07 02:17:10;;;;;;;2.50;2.00;;;22.10;48.70;;;;;;5057778;28;20195;-68
2022/07/07 02:19:37;;;;;;;2.17;1.98;;;22.10;48.80;;;;;;5039923;28;20199;-68
2022/07/07 02:22:04;;;;;;;2.10;1.90;;;22.10;48.90;;;;;;5039539;28;20260;-68
2022/07/07 02:24:32;;;;;;;2.55;2.00;;;22.10;48.90;;;;;;5040073;28;20199;-69
2022/07/07 02:26:59;;;;;;;2.47;1.92;;;22.10;48.90;;;;;;5039696;28;20203;-68
2022/07/07 02:29:27;;;;;;;2.15;1.95;;;22.10;48.90;;;;;;5039307;28;20295;-69
2022/07/07 02:31:55;;;;;;;3.72;2.35;;;22.00;48.80;;;;;;5039289;28;20261;-69
2022/07/07 02:34:22;;;;;;;2.63;2.30;;;22.10;49.00;;;;;;5039182;28;20199;-69
2022/07/07 02:36:51;;;;;;;2.47;2.28;;;22.10;49.60;;;;;;5038986;28;20199;-69
2022/07/07 02:39:19;;;;;;;2.30;2.10;;;22.10;49.10;;;;;;5039148;28;20253;-69
2022/07/07 02:41:45;;;;;;;2.85;2.58;;;22.10;49.10;;;;;;5038723;28;20211;-68
2022/07/07 02:44:13;;;;;;;2.30;2.08;;;22.10;49.20;;;;;;5038889;28;20195;-69
2022/07/07 02:46:39;;;;;;;2.22;2.03;;;22.10;49.10;;;;;;5038696;28;20195;-69
2022/07/07 02:49:08;;;;;;;4.07;2.40;;;22.00;49.00;;;;;;5056568;28;20620;-68
2022/07/07 02:51:35;;;;;;;2.30;2.10;;;22.00;49.10;;;;;;5038624;28;20225;-68
2022/07/07 02:54:03;;;;;;;2.80;2.15;;;22.00;49.10;;;;;;5038971;28;20191;-68
2022/07/07 02:56:30;;;;;;;2.17;1.98;;;22.00;49.10;;;;;;5056474;28;20192;-69
2022/07/07 02:58:57;;;;;;;2.28;1.92;;;22.00;49.20;;;;;;5038945;28;20192;-68
2022/07/07 03:01:24;;;;;;;2.30;2.10;;;22.00;49.10;;;;;;5056752;28;20230;-69
2022/07/07 03:03:51;;;;;;;2.70;2.20;;;22.00;49.10;;;;;;5056437;28;20195;-68
2022/07/07 03:06:19;;;;;;;2.30;2.10;;;22.00;49.10;;;;;;5056447;28;20191;-69
2022/07/07 03:08:47;;;;;;;3.78;2.45;;;22.00;49.20;;;;;;5038447;28;20192;-69
2022/07/07 03:11:14;;;;;;;2.70;2.13;;;22.00;49.30;;;;;;5038710;28;20313;-66
2022/07/07 03:13:40;;;;;;;2.17;1.98;;;22.00;49.20;;;;;;5038474;28;20207;-69
2022/07/07 03:16:07;;;;;;;3.95;2.30;;;22.00;49.10;;;;;;5056555;28;20226;-68
2022/07/07 03:18:35;;;;;;;2.20;2.00;;;22.00;49.10;;;;;;5038439;28;20282;-69
2022/07/07 03:21:02;;;;;;;2.53;2.05;;;22.00;49.00;;;;;;5056177;28;20290;-69
2022/07/07 03:23:31;;;;;;;2.53;2.10;;;22.00;48.90;;;;;;5037360;28;20204;-69
2022/07/07 03:25:58;;;;;;;2.50;2.30;;;22.00;49.10;;;;;;5038328;28;20294;-68
2022/07/07 03:28:25;;;;;;;2.08;1.88;;;22.10;49.20;;;;;;5038045;28;20203;-68
2022/07/07 03:30:52;;;;;;;2.58;2.30;;;22.00;49.10;;;;;;5056021;28;20219;-69
2022/07/07 03:33:19;;;;;;;2.35;2.08;;;22.10;49.10;;;;;;5038155;28;20210;-69
2022/07/07 03:35:46;;;;;;;3.22;2.20;;;22.10;49.00;;;;;;5037816;28;20214;-69
2022/07/07 03:38:14;;;;;;;2.60;2.40;;;22.10;49.00;;;;;;5038164;28;20569;-67
2022/07/07 03:40:42;;;;;;;3.08;2.20;;;22.10;48.90;;;;;;5037896;28;20302;-69
2022/07/07 03:43:28;;;;;;;2.08;1.92;;;22.10;48.70;;;;;;5056041;28;20549;-69
2022/07/07 03:45:55;;;;;;;3.80;2.15;;;22.10;48.70;;;;;;5038623;28;20196;-69
2022/07/07 03:48:23;;;;;;;2.38;2.17;;;22.10;48.80;;;;;;5055768;28;20198;-69
2022/07/07 03:50:50;;;;;;;3.28;1.80;;;22.10;48.90;;;;;;5037536;28;20219;-69
2022/07/07 03:53:17;;;;;;;2.70;2.13;;;22.10;48.90;;;;;;5037865;28;20715;-69
2022/07/07 03:55:45;;;;;;;2.40;2.20;;;22.10;48.80;;;;;;5037688;28;20187;-69
2022/07/07 03:58:12;;;;;;;2.92;1.98;;;22.10;48.80;;;;;;5037529;28;20195;-68
2022/07/07 04:00:39;;;;;;;1.98;1.70;;;22.10;48.90;;;;;;5055549;28;20230;-69
2022/07/07 04:03:07;;;;;;;2.15;2.05;;;22.10;48.90;;;;;;5037442;28;20195;-69
2022/07/07 04:05:34;;;;;;;3.03;2.30;;;22.10;48.90;;;;;;5037408;28;20214;-68
2022/07/07 04:08:01;;;;;;;2.53;2.15;;;22.10;48.90;;;;;;5037227;28;20195;-68
2022/07/07 04:10:28;;;;;;;2.45;1.90;;;22.10;48.90;;;;;;5037500;28;20227;-69
2022/07/07 04:12:56;;;;;;;2.38;2.13;;;22.10;49.00;;;;;;5037240;28;20549;-69
2022/07/07 04:15:23;;;;;;;2.10;1.90;;;22.10;48.90;;;;;;5037589;28;20231;-69
2022/07/07 04:17:50;;;;;;;2.63;2.10;;;22.20;49.00;;;;;;5037323;28;20622;-68
2022/07/07 04:20:17;;;;;;;2.20;2.00;;;22.10;48.90;;;;;;5037229;28;20582;-69
2022/07/07 04:22:44;;;;;;;2.53;1.90;;;22.10;48.90;;;;;;5037035;28;20203;-68
2022/07/07 04:25:11;;;;;;;2.30;2.10;;;22.10;48.90;;;;;;5037177;28;20209;-68
2022/07/07 04:27:38;;;;;;;2.30;1.83;;;22.10;48.90;;;;;;5055213;28;20196;-69
2022/07/07 04:30:08;;;;;;;2.47;1.92;;;22.10;48.90;;;;;;5036575;28;20200;-69
2022/07/07 04:32:35;;;;;;;2.35;1.88;;;22.10;48.90;;;;;;5036629;28;20222;-70
2022/07/07 04:35:02;;;;;;;2.55;1.80;;;22.10;48.70;;;;;;5036561;28;20671;-68
2022/07/07 04:37:29;;;;;;;2.58;2.00;;;22.10;48.40;;;;;;5036867;28;20191;-68
2022/07/07 04:39:56;;;;;;;2.10;1.90;;;22.10;48.40;;;;;;5036459;28;20269;-69
2022/07/07 04:42:23;;;;;;;3.53;1.92;;;22.10;48.10;;;;;;5036645;28;20215;-68
2022/07/07 04:44:50;;;;;;;4.13;2.22;;;22.10;48.00;;;;;;5036719;28;20199;-67
2022/07/07 04:47:19;;;;;;;3.95;1.88;;;22.10;47.80;;;;;;5054619;28;20187;-68
2022/07/07 04:49:45;;;;;;;3.83;1.83;;;22.10;47.50;;;;;;5054395;28;20192;-68
2022/07/07 04:52:13;;;;;;;2.45;1.95;;;22.10;47.50;;;;;;5036271;28;20219;-68
2022/07/07 04:54:40;;;;;;;2.83;1.98;;;22.10;47.50;;;;;;5036336;28;20195;-68
2022/07/07 04:57:07;;;;;;;2.17;1.80;;;22.10;47.50;;;;;;5036737;28;20230;-68
2022/07/07 04:59:34;;;;;;;2.63;1.92;;;22.10;47.40;;;;;;5036352;28;20563;-68
2022/07/07 05:02:01;;;;;;;4.05;1.98;;;22.10;47.30;;;;;;5054180;28;20256;-67
2022/07/07 05:04:32;;;;;;;2.40;1.75;;;22.10;47.30;;;;;;5036204;28;20195;-68
2022/07/07 05:06:59;;;;;;;4.07;1.98;;;22.10;46.90;;;;;;5054445;28;20199;-68
2022/07/07 05:09:26;;;;;;;2.92;2.03;;;22.10;47.00;;;;;;5036416;28;20199;-68
2022/07/07 05:11:53;;;;;;;5.18;2.20;;;22.20;47.30;;;;;;5036059;28;20269;-67
2022/07/07 05:14:20;;;;;;;3.13;2.00;;;22.20;47.20;;;;;;5036627;28;20191;-68
2022/07/07 05:16:47;;;;;;;2.00;1.90;;;22.30;47.50;;;;;;5036337;28;20298;-66
2022/07/07 05:19:14;;;;;;;2.35;1.88;;;22.30;47.40;;;;;;5036218;28;20195;-66
2022/07/07 05:21:42;;;;;;;2.85;1.70;;;22.40;47.60;;;;;;5037938;28;20310;-66
2022/07/07 05:24:09;;;;;;;2.47;1.88;;;22.40;47.50;;;;;;5058449;28;20203;-68
2022/07/07 05:26:36;;;;;;;3.90;1.88;;;22.50;47.80;;;;;;5050248;28;20183;-67
2022/07/07 05:29:03;;;;;;;3.47;1.75;;;22.50;47.80;;;;;;5036975;28;20192;-67
2022/07/07 05:31:30;;;;;;;1.60;1.50;;;22.60;47.80;;;;;;5035946;28;20219;-66
2022/07/07 05:33:57;;;;;;;1.85;1.70;;;22.60;47.90;;;;;;5036111;28;20202;-67
2022/07/07 05:36:24;;;;;;;2.92;1.95;;;22.70;47.50;;;;;;5035915;28;20191;-66
2022/07/07 05:38:52;;;;;;;3.22;1.88;;;22.70;47.40;;;;;;5053642;28;20198;-67
2022/07/07 05:41:19;;;;;;;3.53;1.80;;;22.80;47.30;;;;;;5035507;28;20306;-66
2022/07/07 05:43:48;;;;;;;2.20;1.95;;;22.90;47.20;;;;;;5035538;28;20233;-67
2022/07/07 05:46:14;;;;;;;3.40;1.85;;;22.90;47.40;;;;;;5035725;28;20196;-68
2022/07/07 05:48:42;;;;;;;4.45;1.98;;;23.00;47.60;;;;;;5036208;28;20200;-67
2022/07/07 05:51:09;;;;;;;2.08;1.65;;;23.00;47.60;;;;;;5035831;28;20634;-68
2022/07/07 05:53:37;;;;;;;2.03;1.70;;;23.20;47.70;;;;;;5035531;28;20248;-68
2022/07/07 05:56:05;;;;;;;2.28;2.00;;;23.30;47.30;;;;;;5054005;28;20222;-68
2022/07/07 05:58:32;;;;;;;4.78;1.80;;;23.50;47.00;;;;;;5053344;28;20278;-68
2022/07/07 06:01:00;;;;;;;2.70;1.83;;;23.70;46.60;;;;;;5053777;28;20207;-68
2022/07/07 06:03:27;;;;;;;2.22;1.88;;;23.90;46.30;;;;;;5035553;28;20200;-68
2022/07/07 06:05:54;;;;;;;3.05;1.88;;;24.10;45.90;;;;;;5053308;28;20230;-68
2022/07/07 06:08:21;;;;;;;4.80;2.00;;;24.30;45.60;;;;;;5035457;28;20640;-68
2022/07/07 06:10:48;;;;;;;4.07;1.95;;;24.40;45.30;;;;;;5053001;28;20227;-68
2022/07/07 06:13:17;;;;;;;2.17;1.85;;;24.50;45.20;;;;;;5035330;28;20195;-67
2022/07/07 06:15:44;;;;;;;1.95;1.52;;;24.60;45.00;;;;;;5035670;28;20290;-68
2022/07/07 06:18:11;;;;;;;2.30;1.83;;;24.70;45.00;;;;;;5036130;28;20202;-68
2022/07/07 06:20:38;;;;;;;2.05;1.83;;;24.80;44.70;;;;;;5035709;28;20246;-68
2022/07/07 06:23:05;;;;;;;2.42;1.70;;;24.90;44.70;;;;;;5035610;28;20286;-68
2022/07/07 06:25:33;;;;;;;1.90;1.70;;;24.90;44.70;;;;;;5035115;28;20199;-68
2022/07/07 06:28:01;;;;;;;4.15;2.00;;;24.90;44.50;;;;;;5035248;28;20200;-67
2022/07/07 06:30:30;;;;;;;3.95;1.90;;;24.90;44.40;;;;;;5035475;28;20250;-68
2022/07/07 06:32:56;;;;;;;2.55;1.70;;;25.00;44.40;;;;;;5035144;28;20633;-70
2022/07/07 06:35:26;;;;;;;2.25;1.70;;;25.10;44.20;;;;;;5052838;28;20287;-68
2022/07/07 06:37:53;;;;;;;5.22;1.80;;;25.10;44.10;;;;;;5052801;28;20557;-68
2022/07/07 06:40:21;;;;;;;2.03;1.70;;;25.20;44.00;;;;;;5035029;28;20656;-68
2022/07/07 06:42:48;;;;;;;2.15;1.77;;;25.30;43.90;;;;;;5034825;28;20198;-68
2022/07/07 06:45:23;;;;;;;1.83;1.55;;;25.50;43.60;;;;;;5035071;28;20184;-68
2022/07/07 06:47:52;;;;;;;2.22;1.65;;;25.60;43.40;;;;;;5035150;28;20203;-68
2022/07/07 06:50:19;;;;;;;1.75;1.65;;;25.70;43.20;;;;;;5034784;28;20249;-68
2022/07/07 06:52:46;;;;;;;2.25;1.60;;;25.80;42.90;;;;;;5035179;28;20691;-68
2022/07/07 06:55:14;;;;;;;1.80;1.60;;;25.90;42.80;;;;;;5035253;28;20199;-68
2022/07/07 06:57:40;;;;;;;2.42;1.77;;;25.90;42.80;;;;;;5035189;28;20188;-68
2022/07/07 07:00:10;;;;;;;2.47;1.70;;;25.80;42.90;;;;;;5038264;28;20199;-68
2022/07/07 07:02:42;;;;;;;3.60;1.95;;;25.70;43.10;;;;;;5038725;28;20195;-68
2022/07/07 07:05:10;;;;;;;2.78;1.90;;;25.60;43.30;;;;;;5038389;28;20196;-67
2022/07/07 07:07:37;;;;;;;3.58;1.85;;;25.50;43.50;;;;;;5038550;28;20215;-68
2022/07/07 07:10:06;;;;;;;2.35;1.60;;;25.40;44.40;;;;;;5038449;28;20552;-68
2022/07/07 07:12:33;;;;;;;2.47;1.73;;;25.30;43.90;;;;;;5055959;28;20207;-67
2022/07/07 07:15:00;;;;;;;2.42;1.90;;;25.20;44.00;;;;;;5038135;28;20235;-68
2022/07/07 07:17:27;;;;;;;3.17;1.70;;;25.10;44.10;;;;;;5056577;28;20222;-67
2022/07/07 07:19:53;;;;;;;2.25;1.92;;;25.10;44.20;;;;;;5056708;28;20192;-68
2022/07/07 07:22:22;;;;;;;3.13;2.10;;;25.10;44.30;;;;;;5038209;28;20226;-68
2022/07/07 07:24:49;;;;;;;2.22;1.80;;;25.00;44.40;;;;;;5055966;28;20192;-68
2022/07/07 07:27:16;;;;;;;1.90;1.80;;;25.00;44.50;;;;;;5038095;28;20253;-68
2022/07/07 07:29:43;;;;;;;1.98;1.70;;;25.00;44.60;;;;;;5055828;28;20192;-68
2022/07/07 07:32:10;;;;;;;3.00;2.08;;;24.90;44.60;;;;;;5037703;28;20600;-68
2022/07/07 07:34:37;;;;;;;2.15;1.90;;;24.90;44.60;;;;;;5037966;28;20660;-68
2022/07/07 07:37:04;;;;;;;1.90;1.60;;;24.90;44.50;;;;;;5037924;28;20206;-68
2022/07/07 07:39:34;;;;;;;3.40;1.75;;;24.90;44.70;;;;;;5055651;28;20223;-67
2022/07/07 07:42:00;;;;;;;1.95;1.63;;;24.80;44.60;;;;;;5037578;28;20215;-68
2022/07/07 07:47:12;;;;;;;1.90;1.70;;;24.80;44.70;;;;;;5037995;28;20649;-68
2022/07/07 07:49:39;;;;;;;3.38;1.73;;;24.80;44.80;;;;;;5037795;28;20571;-68
2022/07/07 07:52:07;;;;;;;2.72;1.73;;;24.70;44.80;;;;;;5038056;28;20664;-68
2022/07/07 07:54:35;;;;;;;1.98;1.70;;;24.80;45.00;;;;;;5038031;28;20188;-68
2022/07/07 07:57:03;;;;;;;2.67;1.77;;;24.70;45.00;;;;;;5038062;28;20205;-68
2022/07/07 07:59:30;;;;;;;2.30;1.77;;;24.70;45.00;;;;;;5038105;28;20202;-68
2022/07/07 08:01:57;;;;;;;2.20;1.98;;;24.70;45.00;;;;;;5037806;28;20769;-68
2022/07/07 08:04:24;;;;;;;2.42;1.90;;;24.70;45.00;;;;;;5037226;28;20222;-68
2022/07/07 08:06:51;;;;;;;2.72;1.70;;;24.70;45.00;;;;;;5037377;28;20195;-68
2022/07/07 08:09:18;;;;;;;2.15;1.70;;;24.70;44.80;;;;;;5037089;28;20192;-68
2022/07/07 08:11:47;;;;;;;1.95;1.70;;;24.70;44.70;;;;;;5037329;28;20238;-68
2022/07/07 08:14:14;;;;;;;2.25;1.70;;;24.70;44.90;;;;;;5055626;28;20191;-67
2022/07/07 08:16:41;;;;;;;1.85;1.52;;;24.70;45.00;;;;;;5037203;28;20195;-68
2022/07/07 08:19:07;;;;;;;2.53;1.60;;;24.70;45.10;;;;;;5037189;28;20294;-67
2022/07/07 08:21:35;;;;;;;1.80;1.58;;;24.70;45.00;;;;;;5037313;28;20215;-68
2022/07/07 08:24:02;;;;;;;3.00;1.67;;;24.60;45.10;;;;;;5055347;28;20206;-68
2022/07/07 08:26:28;;;;;;;1.92;1.63;;;24.60;45.10;;;;;;5037359;28;20225;-68
2022/07/07 08:28:57;;;;;;;4.32;1.90;;;24.60;45.10;;;;;;5054906;28;20660;-68
2022/07/07 08:31:24;;;;;;;2.35;1.70;;;24.60;45.00;;;;;;5036937;28;20584;-68
2022/07/07 08:33:51;;;;;;;2.38;1.80;;;24.60;45.10;;;;;;5036925;28;20203;-68
2022/07/07 08:36:18;;;;;;;1.83;1.60;;;24.60;45.00;;;;;;5036733;28;20191;-68
2022/07/07 08:38:46;;;;;;;2.13;1.60;;;24.50;44.90;;;;;;5036814;28;20207;-68
2022/07/07 08:41:13;;;;;;;2.67;1.60;;;24.50;45.10;;;;;;5037029;28;20695;-68
2022/07/07 08:43:40;;;;;;;2.45;1.77;;;24.50;45.00;;;;;;5036807;28;20585;-68
2022/07/07 08:46:09;;;;;;;3.25;1.90;;;24.50;45.00;;;;;;5036818;28;20191;-68
2022/07/07 08:48:36;;;;;;;1.70;1.60;;;24.50;45.00;;;;;;5036757;28;20195;-67
2022/07/07 08:51:03;;;;;;;2.42;1.70;;;24.40;45.20;;;;;;5036442;28;20231;-68
2022/07/07 08:53:33;;;;;;;2.13;1.70;;;24.50;45.10;;;;;;5036762;28;20700;-68
2022/07/07 08:56:00;;;;;;;2.28;1.70;;;24.40;45.10;;;;;;5054253;28;20203;-67
2022/07/07 08:58:27;;;;;;;2.25;1.73;;;24.50;45.10;;;;;;5036572;28;20198;-68
2022/07/07 09:00:54;;;;;;;1.80;1.70;;;24.50;45.10;;;;;;5036240;28;20247;-68
2022/07/07 09:03:23;;;;;;;3.42;1.80;;;24.50;45.00;;;;;;5036729;28;20731;-68
2022/07/07 09:05:51;;;;;;;2.00;1.77;;;24.60;44.90;;;;;;5054278;28;20191;-68
2022/07/07 09:08:19;;;;;;;1.90;1.70;;;24.70;44.90;;;;;;5036312;28;20738;-67
2022/07/07 09:10:46;;;;;;;1.80;1.63;;;24.90;44.70;;;;;;5036408;28;20301;-68
2022/07/07 09:13:21;;;;;;;3.78;1.73;;;25.10;44.30;;;;;;5036251;28;20302;-68
2022/07/07 09:15:49;;;;;;;2.25;1.83;;;25.20;44.80;;;;;;5037069;28;20198;-67
2022/07/07 09:18:33;;;;;;;2.72;1.80;;;25.20;44.00;;;;;;5036141;28;20195;-68
2022/07/07 09:21:00;;;;;;;1.65;1.55;;;25.30;44.00;;;;;;5053745;28;20286;-68
2022/07/07 09:23:27;;;;;;;2.05;1.85;;;25.30;44.00;;;;;;5036111;28;20218;-68
2022/07/07 09:25:55;;;;;;;2.92;1.70;;;25.30;44.00;;;;;;5054246;28;20196;-68
2022/07/07 09:28:21;;;;;;;2.25;1.70;;;25.30;44.10;;;;;;5036225;28;20199;-67
2022/07/07 09:30:49;;;;;;;1.70;1.60;;;25.30;44.30;;;;;;5036089;28;20223;-68
2022/07/07 09:33:19;;;;;;;1.73;1.50;;;25.20;44.30;;;;;;5036610;28;20245;-68
2022/07/07 09:38:32;;;;;;;3.70;1.70;;;25.10;45.20;;;;;;5054493;28;20183;-68
2022/07/07 09:41:03;;;;;;;2.15;1.60;;;25.10;45.10;;;;;;5036358;28;20258;-67
2022/07/07 09:43:31;;;;;;;2.85;1.83;;;25.00;44.80;;;;;;5036081;28;20192;-67
2022/07/07 09:46:16;;;;;;;1.85;1.75;;;25.00;44.90;;;;;;5036045;28;20307;-68
2022/07/07 09:48:44;;;;;;;1.60;1.50;;;25.00;45.10;;;;;;5035942;28;20610;-68
2022/07/07 09:51:14;;;;;;;2.00;1.80;;;25.00;45.20;;;;;;5053861;28;20268;-67
2022/07/07 09:54:01;;;;;;;2.28;1.75;;;24.90;45.10;;;;;;5053537;28;20591;-68
2022/07/07 09:56:29;;;;;;;1.77;1.67;;;24.90;45.10;;;;;;5036075;28;20222;-68
2022/07/07 09:58:56;;;;;;;2.10;1.77;;;24.90;45.30;;;;;;5035717;28;20261;-68
2022/07/07 10:01:25;;;;;;;2.55;1.65;;;24.80;45.50;;;;;;5035760;28;20691;-68
2022/07/07 10:03:54;;;;;;;3.25;1.52;;;24.80;45.50;;;;;;5035859;28;20199;-68
2022/07/07 10:06:25;;;;;;;1.95;1.50;;;24.80;45.70;;;;;;5036142;28;20253;-68
2022/07/07 10:08:56;;;;;;;3.17;1.80;;;24.80;45.70;;;;;;5035607;28;20214;-68
2022/07/07 10:11:23;;;;;;;1.67;1.58;;;24.70;45.80;;;;;;5035857;28;20219;-67
2022/07/07 10:13:50;;;;;;;2.28;1.60;;;24.70;45.90;;;;;;5035452;28;20757;-67
2022/07/07 10:16:17;;;;;;;2.72;1.50;;;24.70;46.00;;;;;;5035661;28;20203;-68
2022/07/07 10:18:44;;;;;;;1.60;1.50;;;24.70;46.10;;;;;;5035687;28;20202;-67
2022/07/07 10:21:12;;;;;;;1.77;1.50;;;24.70;46.00;;;;;;5053451;28;20211;-68
2022/07/07 10:23:40;;;;;;;1.67;1.58;;;24.70;46.10;;;;;;5035393;28;20577;-68
2022/07/07 10:26:07;;;;;;;1.63;1.40;;;24.70;46.10;;;;;;5035770;28;20298;-68
2022/07/07 10:28:56;;;;;;;1.83;1.50;;;24.80;46.10;;;;;;5035403;28;20281;-68
2022/07/07 10:31:24;;;;;;;1.65;1.55;;;24.80;46.10;;;;;;5036401;28;20281;-68
2022/07/07 10:33:58;;;;;;;2.63;1.70;;;24.80;46.10;;;;;;5039278;28;20215;-68
2022/07/07 10:36:26;;;;;;;1.70;1.60;;;24.80;46.10;;;;;;5039754;28;20199;-68
2022/07/07 10:38:57;;;;;;;2.67;1.60;;;24.90;46.00;;;;;;5057659;28;20191;-68
2022/07/07 10:41:25;;;;;;;1.60;1.50;;;24.90;45.90;;;;;;5039446;28;20718;-68
2022/07/07 10:43:59;;;;;;;2.17;1.50;;;24.90;45.80;;;;;;5040275;28;20188;-68
2022/07/07 10:46:27;;;;;;;1.30;1.30;;;25.00;45.80;;;;;;5042974;28;20201;-68
2022/07/07 10:48:57;;;;;;;2.65;1.80;;;25.00;45.80;;;;;;5041704;28;20199;-68
2022/07/07 10:51:25;;;;;;;1.52;1.42;;;25.00;45.80;;;;;;5039817;28;20223;-68
2022/07/07 10:53:59;;;;;;;2.03;1.48;;;25.00;45.90;;;;;;5039484;28;20218;-68
2022/07/07 10:56:26;;;;;;;1.70;1.60;;;25.00;45.90;;;;;;5040057;28;20251;-68
2022/07/07 10:58:57;;;;;;;1.85;1.60;;;25.00;45.90;;;;;;5038961;28;20195;-68
2022/07/07 11:01:26;;;;;;;1.77;1.60;;;25.00;46.10;;;;;;5057006;28;20301;-68
2022/07/07 11:03:53;;;;;;;3.17;1.60;;;25.00;46.10;;;;;;5056435;28;20191;-68
2022/07/07 11:06:20;;;;;;;1.65;1.55;;;25.00;46.10;;;;;;5038706;28;20195;-67
2022/07/07 11:08:59;;;;;;;2.13;1.48;;;25.00;46.10;;;;;;5056632;28;20187;-68
2022/07/07 11:11:26;;;;;;;2.13;1.60;;;24.90;46.10;;;;;;5056360;28;20215;-67
2022/07/07 11:14:10;;;;;;;2.00;1.60;;;24.90;46.20;;;;;;5038504;28;20219;-67
2022/07/07 11:16:39;;;;;;;1.90;1.42;;;24.90;46.20;;;;;;5038664;28;20658;-68
2022/07/07 11:19:06;;;;;;;1.70;1.60;;;24.90;46.30;;;;;;5038656;28;20213;-68
2022/07/07 11:21:40;;;;;;;1.60;1.50;;;24.90;47.00;;;;;;5038437;28;20306;-68
2022/07/07 11:24:19;;;;;;;1.88;1.60;;;24.80;46.40;;;;;;5038885;28;20256;-68
2022/07/07 11:27:00;;;;;;;1.88;1.60;;;24.80;46.60;;;;;;5038699;28;20199;-68
2022/07/07 11:29:27;;;;;;;2.00;1.60;;;24.80;46.60;;;;;;5038221;28;20191;-68
2022/07/07 11:32:02;;;;;;;1.63;1.52;;;24.70;46.60;;;;;;5038388;28;20223;-68
2022/07/07 11:34:40;;;;;;;1.70;1.60;;;24.70;46.70;;;;;;5038214;28;20760;-68
2022/07/07 11:37:20;;;;;;;1.65;1.55;;;24.70;46.60;;;;;;5056222;28;20546;-67
2022/07/07 11:39:49;;;;;;;2.65;1.60;;;24.70;46.70;;;;;;5038221;28;20183;-67
2022/07/07 11:42:16;;;;;;;2.58;1.63;;;24.70;47.20;;;;;;5055945;28;20564;-68
2022/07/07 11:44:43;;;;;;;1.75;1.65;;;24.70;46.60;;;;;;5037067;28;20569;-68
2022/07/07 11:47:12;;;;;;;1.80;1.50;;;24.70;46.60;;;;;;5038182;28;20286;-68
2022/07/07 11:49:39;;;;;;;2.85;1.70;;;24.70;46.60;;;;;;5037710;28;20196;-68
2022/07/07 11:52:06;;;;;;;1.50;1.40;;;24.80;46.70;;;;;;5037652;28;20219;-68
2022/07/07 11:54:33;;;;;;;1.98;1.83;;;24.80;46.70;;;;;;5037758;28;20261;-68
2022/07/07 11:57:02;;;;;;;1.70;1.60;;;24.80;46.80;;;;;;5055784;28;20190;-68
2022/07/07 11:59:29;;;;;;;1.60;1.50;;;24.70;46.80;;;;;;5037698;28;20191;-67
2022/07/07 12:01:57;;;;;;;2.13;1.60;;;24.70;46.90;;;;;;5031805;23;20233;-75
2022/07/07 12:04:24;;;;;;;1.75;1.60;;;24.70;46.90;;;;;;4978216;28;20285;-75
2022/07/07 12:06:51;;;;;;;1.50;1.40;;;24.70;47.00;;;;;;4978262;28;20288;-75
2022/07/07 12:09:19;;;;;;;2.47;1.63;;;24.70;47.00;;;;;;4978488;28;20256;-75
2022/07/07 12:11:46;;;;;;;1.98;1.65;;;24.70;47.60;;;;;;4995538;28;20218;-75
2022/07/07 12:14:15;;;;;;;1.75;1.40;;;24.70;47.20;;;;;;4978003;28;20264;-75
2022/07/07 12:16:44;;;;;;;2.47;1.42;;;24.70;47.30;;;;;;4996122;28;20212;-75
2022/07/07 12:19:11;;;;;;;1.50;1.40;;;24.70;47.30;;;;;;4978225;28;20212;-76
2022/07/07 12:21:43;;;;;;;1.60;1.50;;;24.70;47.30;;;;;;4995878;28;20218;-76
2022/07/07 12:24:13;;;;;;;1.75;1.65;;;24.70;47.30;;;;;;4978160;28;20204;-75
2022/07/07 12:26:43;;;;;;;2.13;1.80;;;24.60;47.30;;;;;;4995645;28;20194;-76
2022/07/07 12:29:11;;;;;;;2.28;1.60;;;24.60;47.40;;;;;;4978366;28;20232;-75
2022/07/07 12:31:39;;;;;;;1.85;1.48;;;24.60;47.40;;;;;;4977814;28;20220;-75
2022/07/07 12:34:12;;;;;;;2.33;1.58;;;24.60;47.30;;;;;;4977749;28;20214;-75
2022/07/07 12:36:40;;;;;;;1.70;1.60;;;24.70;47.40;;;;;;4977871;28;20197;-75
2022/07/07 12:39:07;;;;;;;2.67;1.50;;;24.70;47.30;;;;;;4978049;28;20193;-75
2022/07/07 12:41:34;;;;;;;1.58;1.48;;;24.70;47.20;;;;;;4977585;28;20287;-75
2022/07/07 12:44:12;;;;;;;2.08;1.63;;;24.70;47.30;;;;;;4977504;28;20729;-75
2022/07/07 12:46:40;;;;;;;1.92;1.52;;;24.70;47.20;;;;;;4977931;28;20554;-75
2022/07/07 12:49:07;;;;;;;1.70;1.60;;;24.70;47.10;;;;;;4977536;28;20197;-75
2022/07/07 12:51:34;;;;;;;1.50;1.40;;;24.80;47.20;;;;;;4978584;28;20217;-75
2022/07/07 12:54:01;;;;;;;2.00;1.60;;;24.70;47.10;;;;;;4977526;28;20224;-75
2022/07/07 12:56:33;;;;;;;1.52;1.40;;;24.70;47.00;;;;;;4976524;28;20208;-75
2022/07/07 12:59:00;;;;;;;1.70;1.40;;;24.80;47.10;;;;;;4977450;28;20201;-75